createdAt,value
2018-09-19T00:01:21.368Z,9.70
2018-09-19T00:03:50.632Z,8.27
2018-09-19T00:06:19.810Z,11.97
2018-09-19T00:08:49.040Z,6.37
2018-09-19T00:11:18.394Z,7.17
2018-09-19T00:13:47.622Z,8.13
2018-09-19T00:16:16.790Z,11.80
2018-09-19T00:18:46.172Z,8.60
2018-09-19T00:21:15.547Z,8.07
2018-09-19T00:23:45.838Z,7.20
2018-09-19T00:26:15.519Z,8.37
2018-09-19T00:31:23.176Z,9.00
2018-09-19T00:33:52.267Z,6.93
2018-09-19T00:36:21.443Z,12.20
2018-09-19T00:38:50.689Z,11.93
2018-09-19T00:41:20.745Z,9.50
2018-09-19T00:43:50.533Z,8.93
2018-09-19T00:46:19.683Z,10.60
2018-09-19T00:48:49.252Z,10.67
2018-09-19T00:51:18.823Z,8.50
2018-09-19T00:53:47.890Z,8.33
2018-09-19T00:56:16.977Z,10.53
2018-09-19T00:58:46.170Z,12.17
2018-09-19T01:01:16.008Z,11.20
2018-09-19T01:03:48.535Z,12.53
2018-09-19T01:06:18.251Z,9.83
2018-09-19T01:08:48.458Z,10.30
2018-09-19T01:11:17.556Z,12.90
2018-09-19T01:13:46.689Z,11.43
2018-09-19T01:16:16.005Z,14.73
2018-09-19T01:18:46.508Z,10.07
2018-09-19T01:21:15.601Z,10.40
2018-09-19T01:23:44.851Z,9.87
2018-09-19T01:26:14.623Z,14.40
2018-09-19T01:28:43.689Z,11.40
2018-09-19T01:31:13.509Z,11.83
2018-09-19T01:33:43.226Z,9.67
2018-09-19T01:36:12.374Z,16.13
2018-09-19T01:38:41.484Z,10.23
2018-09-19T01:41:10.566Z,10.13
2018-09-19T01:43:39.658Z,9.40
2018-09-19T01:46:08.764Z,10.20
2018-09-19T01:48:37.839Z,12.87
2018-09-19T01:51:06.926Z,15.50
2018-09-19T01:53:36.144Z,9.73
2018-09-19T01:56:05.394Z,12.03
2018-09-19T01:58:35.622Z,11.23
2018-09-19T02:01:04.712Z,12.93
2018-09-19T02:03:33.780Z,10.83
2018-09-19T02:06:02.936Z,10.00
2018-09-19T02:08:32.014Z,10.63
2018-09-19T02:11:01.157Z,10.97
2018-09-19T02:13:30.697Z,13.27
2018-09-19T02:16:00.473Z,14.13
2018-09-19T02:18:29.543Z,10.53
2018-09-19T02:20:58.661Z,8.40
2018-09-19T02:23:28.378Z,14.40
2018-09-19T02:25:57.505Z,11.37
2018-09-19T02:28:26.679Z,14.80
2018-09-19T02:30:56.319Z,12.60
2018-09-19T02:33:25.396Z,7.87
2018-09-19T02:35:54.524Z,15.93
2018-09-19T02:38:23.594Z,11.63
2018-09-19T02:40:52.747Z,11.30
2018-09-19T02:43:21.847Z,7.77
2018-09-19T02:45:50.919Z,12.83
2018-09-19T02:48:20.270Z,8.73
2018-09-19T02:50:49.353Z,17.33
2018-09-19T02:53:18.393Z,10.93
2018-09-19T02:55:47.570Z,12.63
2018-09-19T02:58:16.744Z,20.10
2018-09-19T03:00:45.883Z,10.50
2018-09-19T03:03:21.391Z,11.90
2018-09-19T03:05:50.453Z,11.20
2018-09-19T03:08:19.779Z,11.27
2018-09-19T03:10:48.853Z,13.33
2018-09-19T03:13:18.007Z,10.07
2018-09-19T03:15:47.072Z,10.30
2018-09-19T03:18:16.171Z,13.73
2018-09-19T03:20:45.244Z,12.30
2018-09-19T03:23:14.355Z,13.27
2018-09-19T03:25:43.402Z,12.30
2018-09-19T03:28:12.975Z,14.10
2018-09-19T03:30:42.075Z,14.30
2018-09-19T03:33:11.920Z,18.70
2018-09-19T03:35:41.029Z,11.30
2018-09-19T03:38:10.832Z,10.90
2018-09-19T03:40:39.933Z,14.53
2018-09-19T03:43:08.970Z,10.57
2018-09-19T03:45:38.419Z,15.17
2018-09-19T03:48:07.496Z,13.73
2018-09-19T03:50:36.603Z,11.23
2018-09-19T03:53:05.672Z,13.87
2018-09-19T03:55:34.734Z,13.83
2018-09-19T03:58:03.810Z,14.53
2018-09-19T04:00:39.637Z,15.23
2018-09-19T04:03:09.566Z,13.50
2018-09-19T04:05:39.026Z,12.00
2018-09-19T04:08:08.232Z,13.50
2018-09-19T04:10:37.374Z,11.40
2018-09-19T04:13:06.766Z,14.33
2018-09-19T04:15:35.973Z,15.30
2018-09-19T04:18:05.059Z,15.47
2018-09-19T04:20:34.196Z,12.80
2018-09-19T04:23:03.376Z,13.07
2018-09-19T04:25:32.663Z,12.53
2018-09-19T04:28:02.338Z,18.47
2018-09-19T04:30:31.459Z,12.83
2018-09-19T04:33:00.602Z,14.80
2018-09-19T04:35:29.746Z,16.90
2018-09-19T04:37:58.906Z,11.67
2018-09-19T04:40:27.979Z,22.77
2018-09-19T04:42:57.184Z,15.20
2018-09-19T04:45:26.363Z,12.40
2018-09-19T04:47:55.380Z,10.23
2018-09-19T04:50:24.638Z,17.23
2018-09-19T04:52:53.745Z,11.30
2018-09-19T04:55:22.811Z,9.77
2018-09-19T04:57:52.519Z,11.10
2018-09-19T05:00:21.906Z,11.20
2018-09-19T05:02:51.612Z,13.10
2018-09-19T05:05:21.258Z,11.10
2018-09-19T05:07:50.386Z,10.47
2018-09-19T05:10:19.486Z,11.47
2018-09-19T05:12:48.548Z,12.17
2018-09-19T05:15:17.650Z,10.43
2018-09-19T05:17:46.734Z,16.40
2018-09-19T05:20:15.894Z,14.80
2018-09-19T05:22:45.044Z,12.70
2018-09-19T05:25:14.093Z,11.93
2018-09-19T05:27:43.191Z,15.40
2018-09-19T05:30:12.326Z,16.10
2018-09-19T05:32:41.436Z,16.03
2018-09-19T05:35:10.564Z,13.73
2018-09-19T05:37:39.755Z,16.37
2018-09-19T05:40:09.037Z,14.17
2018-09-19T05:42:38.217Z,11.77
2018-09-19T05:45:07.319Z,18.10
2018-09-19T05:47:36.485Z,11.30
2018-09-19T05:50:05.740Z,12.10
2018-09-19T05:52:35.622Z,13.40
2018-09-19T05:55:04.711Z,14.27
2018-09-19T05:57:33.830Z,15.13
2018-09-19T06:00:03.003Z,11.57
2018-09-19T06:02:32.137Z,18.90
2018-09-19T06:05:01.305Z,12.43
2018-09-19T06:07:30.333Z,17.10
2018-09-19T06:09:59.434Z,15.10
2018-09-19T06:12:28.643Z,14.93
2018-09-19T06:14:57.777Z,16.93
2018-09-19T06:17:27.551Z,12.27
2018-09-19T06:19:56.620Z,11.83
2018-09-19T06:22:26.750Z,15.40
2018-09-19T06:24:55.863Z,22.77
2018-09-19T06:27:24.903Z,19.70
2018-09-19T06:29:54.104Z,15.40
2018-09-19T06:32:24.216Z,35.97
2018-09-19T06:34:55.171Z,33.83
2018-09-19T06:37:24.287Z,36.30
2018-09-19T06:39:53.417Z,23.13
2018-09-19T06:42:22.488Z,22.63
2018-09-19T06:44:51.693Z,26.37
2018-09-19T06:47:21.030Z,14.37
2018-09-19T06:49:50.116Z,18.80
2018-09-19T06:52:19.655Z,22.57
2018-09-19T06:54:48.777Z,18.47
2018-09-19T06:57:17.835Z,16.33
2018-09-19T06:59:47.276Z,17.80
2018-09-19T07:02:16.376Z,19.40
2018-09-19T07:04:46.026Z,20.80
2018-09-19T07:07:15.252Z,15.37
2018-09-19T07:09:44.898Z,14.33
2018-09-19T07:12:14.109Z,14.63
2018-09-19T07:14:43.190Z,18.53
2018-09-19T07:17:12.282Z,17.00
2018-09-19T07:19:42.128Z,14.63
2018-09-19T07:22:11.224Z,20.63
2018-09-19T07:24:40.935Z,16.13
2018-09-19T07:27:10.114Z,15.27
2018-09-19T07:29:40.207Z,18.23
2018-09-19T07:32:09.648Z,14.40
2018-09-19T07:34:38.735Z,13.10
2018-09-19T07:37:07.927Z,21.57
2018-09-19T07:39:36.989Z,13.83
2018-09-19T07:42:06.238Z,17.03
2018-09-19T07:44:35.339Z,12.93
2018-09-19T07:47:04.737Z,16.50
2018-09-19T07:49:34.591Z,18.17
2018-09-19T07:52:03.739Z,12.43
2018-09-19T07:54:33.123Z,9.40
2018-09-19T07:57:02.231Z,9.93
2018-09-19T07:59:31.319Z,14.10
2018-09-19T08:02:00.481Z,10.50
2018-09-19T08:04:29.659Z,11.67
2018-09-19T08:06:58.711Z,10.60
2018-09-19T08:09:27.912Z,9.23
2018-09-19T08:11:57.033Z,13.60
2018-09-19T08:14:26.118Z,12.70
2018-09-19T08:16:55.278Z,11.10
2018-09-19T08:19:24.303Z,11.33
2018-09-19T08:21:53.439Z,12.23
2018-09-19T08:24:22.539Z,14.00
2018-09-19T08:26:51.696Z,12.43
2018-09-19T08:29:20.806Z,9.80
2018-09-19T08:31:50.946Z,9.53
2018-09-19T08:34:20.124Z,9.53
2018-09-19T08:36:49.220Z,10.87
2018-09-19T08:39:21.763Z,11.00
2018-09-19T08:41:50.922Z,13.83
2018-09-19T08:44:20.108Z,13.77
2018-09-19T08:46:49.187Z,12.43
2018-09-19T08:49:18.285Z,9.30
2018-09-19T08:51:47.562Z,12.23
2018-09-19T08:54:16.681Z,12.80
2018-09-19T08:56:46.528Z,10.00
2018-09-19T08:59:16.088Z,8.87
2018-09-19T09:01:45.175Z,12.23
2018-09-19T09:04:14.786Z,12.00
2018-09-19T09:06:44.624Z,10.10
2018-09-19T09:09:13.806Z,11.20
2018-09-19T09:11:42.897Z,12.20
2018-09-19T09:14:12.011Z,9.80
2018-09-19T09:16:41.238Z,7.57
2018-09-19T09:19:10.297Z,7.43
2018-09-19T09:21:40.024Z,6.87
2018-09-19T09:24:10.021Z,11.70
2018-09-19T09:26:39.121Z,10.83
2018-09-19T09:29:08.173Z,13.60
2018-09-19T09:31:37.270Z,10.20
2018-09-19T09:34:06.534Z,15.93
2018-09-19T09:36:35.573Z,8.67
2018-09-19T09:39:06.128Z,8.47
2018-09-19T09:41:35.211Z,9.23
2018-09-19T09:44:04.537Z,7.47
2018-09-19T09:46:33.642Z,7.97
2018-09-19T09:49:02.739Z,12.93
2018-09-19T09:51:31.856Z,12.43
2018-09-19T09:54:00.942Z,6.13
2018-09-19T09:56:30.068Z,6.07
2018-09-19T09:58:59.788Z,9.20
2018-09-19T10:01:29.264Z,6.47
2018-09-19T10:03:58.396Z,6.13
2018-09-19T10:06:27.561Z,7.37
2018-09-19T10:08:56.730Z,9.17
2018-09-19T10:11:26.261Z,7.30
2018-09-19T10:13:55.469Z,9.17
2018-09-19T10:16:25.292Z,6.73
2018-09-19T10:18:54.472Z,6.80
2018-09-19T10:21:24.163Z,9.13
2018-09-19T10:23:53.323Z,5.70
2018-09-19T10:26:22.618Z,8.60
2018-09-19T10:28:51.727Z,7.47
2018-09-19T10:31:21.013Z,7.63
2018-09-19T10:33:50.558Z,6.30
2018-09-19T10:36:20.374Z,7.03
2018-09-19T10:38:49.679Z,4.67
2018-09-19T10:41:19.420Z,11.57
2018-09-19T10:43:48.628Z,5.63
2018-09-19T10:46:18.482Z,5.63
2018-09-19T10:48:48.356Z,12.20
2018-09-19T10:51:17.463Z,7.20
2018-09-19T10:53:46.599Z,5.80
2018-09-19T10:56:16.491Z,6.17
2018-09-19T10:58:46.988Z,8.00
2018-09-19T11:01:17.360Z,5.87
2018-09-19T11:03:48.492Z,4.47
2018-09-19T11:06:20.284Z,7.40
2018-09-19T11:08:51.103Z,4.20
2018-09-19T11:11:21.189Z,4.40
2018-09-19T11:13:51.474Z,6.60
2018-09-19T11:16:21.444Z,4.97
2018-09-19T11:18:51.095Z,19.50
2018-09-19T11:21:21.121Z,6.60
2018-09-19T11:23:50.497Z,4.70
2018-09-19T11:26:19.959Z,5.03
2018-09-19T11:28:49.946Z,8.27
2018-09-19T11:31:20.743Z,5.80
2018-09-19T11:33:50.862Z,6.60
2018-09-19T11:36:21.379Z,6.70
2018-09-19T11:38:51.670Z,6.23
2018-09-19T11:41:21.504Z,6.70
2018-09-19T11:43:52.471Z,6.17
2018-09-19T11:46:24.545Z,5.37
2018-09-19T11:48:54.753Z,6.37
2018-09-19T11:51:24.910Z,5.90
2018-09-19T11:53:53.996Z,10.77
2018-09-19T11:56:23.755Z,8.70
2018-09-19T11:58:53.607Z,8.97
2018-09-19T12:01:23.061Z,8.80
2018-09-19T12:03:52.169Z,9.57
2018-09-19T12:06:22.096Z,9.40
2018-09-19T12:08:51.215Z,7.13
2018-09-19T12:11:20.346Z,5.37
2018-09-19T12:13:49.458Z,7.17
2018-09-19T12:16:18.556Z,7.13
2018-09-19T12:18:48.231Z,7.00
2018-09-19T12:21:17.352Z,6.47
2018-09-19T12:23:46.492Z,9.00
2018-09-19T12:26:15.739Z,8.10
2018-09-19T12:28:45.356Z,6.80
2018-09-19T12:31:14.688Z,5.50
2018-09-19T12:33:50.485Z,8.03
2018-09-19T12:36:20.095Z,7.90
2018-09-19T12:38:49.191Z,7.30
2018-09-19T12:41:18.315Z,6.93
2018-09-19T12:43:47.404Z,5.73
2018-09-19T12:46:17.225Z,5.93
2018-09-19T12:48:47.542Z,9.30
2018-09-19T12:51:16.612Z,7.73
2018-09-19T12:53:45.751Z,5.43
2018-09-19T12:56:15.346Z,7.30
2018-09-19T12:58:44.543Z,5.77
2018-09-19T13:01:15.496Z,6.23
2018-09-19T13:03:44.715Z,5.67
2018-09-19T13:06:13.981Z,5.13
2018-09-19T13:08:43.131Z,4.97
2018-09-19T13:11:12.295Z,5.60
2018-09-19T13:13:41.542Z,15.30
2018-09-19T13:16:10.912Z,6.03
2018-09-19T13:18:40.029Z,9.23
2018-09-19T13:21:09.467Z,5.00
2018-09-19T13:23:38.604Z,4.70
2018-09-19T13:26:07.788Z,7.00
2018-09-19T13:28:37.161Z,5.90
2018-09-19T13:31:06.317Z,5.03
2018-09-19T13:33:35.431Z,6.07
2018-09-19T13:36:04.556Z,7.07
2018-09-19T13:38:34.546Z,6.33
2018-09-19T13:41:03.716Z,6.67
2018-09-19T13:43:33.376Z,6.23
2018-09-19T13:46:02.622Z,7.57
2018-09-19T13:48:32.431Z,5.57
2018-09-19T13:51:19.072Z,11.43
2018-09-19T13:53:48.265Z,4.43
2018-09-19T13:56:17.378Z,7.63
2018-09-19T13:58:47.110Z,6.13
2018-09-19T14:01:16.316Z,6.97
2018-09-19T14:03:46.283Z,5.40
2018-09-19T14:06:15.421Z,7.47
2018-09-19T14:08:45.561Z,5.90
2018-09-19T14:11:15.182Z,5.83
2018-09-19T14:13:45.226Z,9.90
2018-09-19T14:16:14.554Z,8.00
2018-09-19T14:18:45.116Z,6.23
2018-09-19T14:21:15.299Z,6.13
2018-09-19T14:23:45.075Z,9.00
2018-09-19T14:26:15.277Z,4.30
2018-09-19T14:28:45.084Z,5.63
2018-09-19T14:31:14.823Z,7.40
2018-09-19T14:33:44.431Z,6.33
2018-09-19T14:36:15.030Z,5.37
2018-09-19T14:38:44.745Z,7.00
2018-09-19T14:41:14.767Z,6.40
2018-09-19T14:43:44.718Z,4.80
2018-09-19T14:46:15.482Z,5.10
2018-09-19T14:48:45.606Z,6.23
2018-09-19T14:51:14.941Z,5.80
2018-09-19T14:53:46.258Z,7.43
2018-09-19T14:56:15.894Z,4.63
2018-09-19T14:58:46.199Z,6.13
2018-09-19T15:01:16.223Z,5.27
2018-09-19T15:03:46.333Z,7.53
2018-09-19T15:06:16.295Z,7.50
2018-09-19T15:08:46.307Z,5.43
2018-09-19T15:11:17.035Z,4.60
2018-09-19T15:13:47.225Z,5.33
2018-09-19T15:16:19.321Z,8.30
2018-09-19T15:18:50.268Z,5.30
2018-09-19T15:21:19.806Z,5.50
2018-09-19T15:23:49.851Z,4.67
2018-09-19T15:26:20.873Z,7.60
2018-09-19T15:28:50.278Z,6.30
2018-09-19T15:31:21.208Z,5.33
2018-09-19T15:33:51.506Z,6.60
2018-09-19T15:36:22.370Z,5.10
2018-09-19T15:38:53.413Z,6.03
2018-09-19T15:41:25.344Z,9.77
2018-09-19T15:43:55.991Z,5.83
2018-09-19T15:46:26.126Z,7.17
2018-09-19T15:48:57.420Z,7.53
2018-09-19T15:51:29.008Z,10.23
2018-09-19T15:54:00.028Z,6.93
2018-09-19T15:56:29.615Z,7.73
2018-09-19T15:59:01.517Z,6.13
2018-09-19T16:01:31.003Z,5.70
2018-09-19T16:04:00.299Z,4.57
2018-09-19T16:06:29.760Z,7.73
2018-09-19T16:08:59.770Z,7.87
2018-09-19T16:11:28.859Z,5.07
2018-09-19T16:13:58.586Z,4.90
2018-09-19T16:16:31.382Z,5.80
2018-09-19T16:19:00.512Z,6.73
2018-09-19T16:21:30.884Z,5.73
2018-09-19T16:24:02.192Z,7.37
2018-09-19T16:26:31.322Z,7.93
2018-09-19T16:29:01.084Z,5.30
2018-09-19T16:31:31.430Z,5.57
2018-09-19T16:34:00.533Z,5.50
2018-09-19T16:36:29.693Z,6.90
2018-09-19T16:38:58.832Z,7.30
2018-09-19T16:41:28.085Z,5.67
2018-09-19T16:43:57.536Z,7.07
2018-09-19T16:46:26.827Z,5.30
2018-09-19T16:48:56.138Z,8.83
2018-09-19T16:51:25.528Z,5.43
2018-09-19T16:53:55.389Z,5.70
2018-09-19T16:56:24.591Z,9.17
2018-09-19T16:58:53.820Z,7.93
2018-09-19T17:01:23.113Z,5.97
2018-09-19T17:03:53.099Z,7.03
2018-09-19T17:06:23.045Z,9.07
2018-09-19T17:08:52.221Z,5.17
2018-09-19T17:11:22.084Z,7.03
2018-09-19T17:13:51.859Z,5.83
2018-09-19T17:16:21.141Z,15.40
2018-09-19T17:18:50.733Z,8.40
2018-09-19T17:21:20.004Z,8.40
2018-09-19T17:23:49.201Z,9.53
2018-09-19T17:26:18.376Z,7.13
2018-09-19T17:28:48.891Z,6.33
2018-09-19T17:31:18.944Z,5.80
2018-09-19T17:33:48.210Z,9.77
2018-09-19T17:36:18.302Z,6.67
2018-09-19T17:38:47.676Z,8.93
2018-09-19T17:41:18.256Z,6.63
2018-09-19T17:43:47.566Z,6.80
2018-09-19T17:46:17.117Z,4.67
2018-09-19T17:48:46.912Z,12.93
2018-09-19T17:51:16.172Z,9.87
2018-09-19T17:53:45.365Z,6.80
2018-09-19T17:56:16.041Z,12.07
2018-09-19T17:58:45.317Z,6.67
2018-09-19T18:01:15.350Z,7.53
2018-09-19T18:03:44.669Z,8.20
2018-09-19T18:06:14.280Z,10.83
2018-09-19T18:08:44.561Z,6.27
2018-09-19T18:11:14.483Z,7.60
2018-09-19T18:13:43.652Z,12.50
2018-09-19T18:16:13.053Z,6.80
2018-09-19T18:18:42.387Z,7.30
2018-09-19T18:21:11.877Z,7.50
2018-09-19T18:23:42.274Z,5.53
2018-09-19T18:26:12.204Z,7.57
2018-09-19T18:28:43.389Z,5.70
2018-09-19T18:31:12.640Z,13.70
2018-09-19T18:33:42.001Z,5.83
2018-09-19T18:36:11.089Z,10.97
2018-09-19T18:38:40.616Z,9.00
2018-09-19T18:41:10.088Z,9.63
2018-09-19T18:43:39.189Z,5.77
2018-09-19T18:46:08.328Z,8.83
2018-09-19T18:48:37.544Z,7.30
2018-09-19T18:51:07.809Z,12.23
2018-09-19T18:53:36.930Z,10.57
2018-09-19T18:56:06.096Z,9.20
2018-09-19T18:58:35.277Z,7.07
2018-09-19T19:01:04.445Z,10.27
2018-09-19T19:03:33.657Z,8.60
2018-09-19T19:06:03.719Z,9.50
2018-09-19T19:08:32.844Z,18.60
2018-09-19T19:11:02.371Z,11.67
2018-09-19T19:13:32.377Z,9.83
2018-09-19T19:16:02.296Z,7.77
2018-09-19T19:18:32.546Z,9.40
2018-09-19T19:21:05.228Z,11.43
2018-09-19T19:23:34.986Z,13.73
2018-09-19T19:26:04.338Z,13.90
2018-09-19T19:28:33.644Z,11.33
2018-09-19T19:31:02.829Z,10.93
2018-09-19T19:33:32.187Z,12.23
2018-09-19T19:36:01.335Z,11.70
2018-09-19T19:38:30.551Z,7.00
2018-09-19T19:40:59.707Z,7.90
2018-09-19T19:43:28.952Z,6.80
2018-09-19T19:45:58.844Z,9.37
2018-09-19T19:48:28.147Z,8.87
2018-09-19T19:50:57.375Z,9.33
2018-09-19T19:53:26.680Z,11.97
2018-09-19T19:55:56.419Z,12.10
2018-09-19T19:58:25.639Z,8.53
2018-09-19T20:00:54.988Z,12.70
2018-09-19T20:03:24.781Z,6.63
2018-09-19T20:05:54.223Z,12.50
2018-09-19T20:08:24.636Z,10.03
2018-09-19T20:10:53.819Z,12.43
2018-09-19T20:13:23.095Z,11.80
2018-09-19T20:15:53.851Z,12.90
2018-09-19T20:18:23.037Z,9.10
2018-09-19T20:20:53.837Z,13.83
2018-09-19T20:23:24.574Z,12.80
2018-09-19T20:25:53.686Z,12.80
2018-09-19T20:28:22.910Z,13.77
2018-09-19T20:30:52.134Z,12.87
2018-09-19T20:33:23.586Z,7.87
2018-09-19T20:35:54.358Z,10.90
2018-09-19T20:38:23.478Z,9.93
2018-09-19T20:40:52.648Z,6.50
2018-09-19T20:43:22.678Z,8.70
2018-09-19T20:45:52.600Z,13.23
2018-09-19T20:48:21.763Z,10.37
2018-09-19T20:50:51.544Z,12.60
2018-09-19T20:53:21.699Z,13.40
2018-09-19T20:55:51.967Z,11.20
2018-09-19T20:58:21.137Z,15.47
2018-09-19T21:00:50.446Z,14.00
2018-09-19T21:03:19.615Z,10.80
2018-09-19T21:05:49.784Z,9.80
2018-09-19T21:08:19.092Z,10.80
2018-09-19T21:10:48.329Z,15.73
2018-09-19T21:13:17.712Z,10.47
2018-09-19T21:15:47.774Z,10.63
2018-09-19T21:18:16.980Z,8.90
2018-09-19T21:20:46.133Z,13.73
2018-09-19T21:23:15.326Z,18.23
2018-09-19T21:25:45.679Z,9.37
2018-09-19T21:28:16.811Z,10.20
2018-09-19T21:30:46.523Z,15.50
2018-09-19T21:33:15.781Z,12.47
2018-09-19T21:35:44.929Z,13.03
2018-09-19T21:38:14.918Z,11.53
2018-09-19T21:40:44.063Z,12.37
2018-09-19T21:43:13.615Z,17.13
2018-09-19T21:45:42.921Z,16.43
2018-09-19T21:48:13.379Z,10.97
2018-09-19T21:50:42.736Z,9.70
2018-09-19T21:53:12.496Z,8.93
2018-09-19T21:55:41.738Z,10.13
2018-09-19T21:58:10.939Z,15.97
2018-09-19T22:00:40.121Z,7.37
2018-09-19T22:03:09.228Z,16.27
2018-09-19T22:05:38.345Z,13.23
2018-09-19T22:08:07.448Z,13.90
2018-09-19T22:10:37.860Z,11.43
2018-09-19T22:13:06.987Z,13.67
2018-09-19T22:15:36.150Z,13.97
2018-09-19T22:18:05.854Z,14.57
2018-09-19T22:20:35.926Z,10.70
2018-09-19T22:23:05.118Z,12.20
2018-09-19T22:25:34.256Z,10.90
2018-09-19T22:28:03.379Z,18.33
2018-09-19T22:30:33.225Z,11.53
2018-09-19T22:33:02.824Z,16.80
2018-09-19T22:35:31.927Z,15.27
2018-09-19T22:38:01.066Z,14.87
2018-09-19T22:40:30.129Z,17.17
2018-09-19T22:42:59.241Z,23.53
2018-09-19T22:45:28.571Z,16.20
2018-09-19T22:47:59.512Z,19.47
2018-09-19T22:50:28.694Z,16.40
2018-09-19T22:52:58.767Z,12.83
2018-09-19T22:55:27.923Z,11.13
2018-09-19T22:57:56.954Z,17.33
2018-09-19T23:00:26.170Z,14.10
2018-09-19T23:02:55.295Z,18.40
2018-09-19T23:05:24.403Z,13.60
2018-09-19T23:07:53.530Z,15.83
2018-09-19T23:10:22.651Z,10.53
2018-09-19T23:12:51.753Z,16.13
2018-09-19T23:15:20.975Z,11.13
2018-09-19T23:17:50.297Z,17.53
2018-09-19T23:20:19.389Z,13.00
2018-09-19T23:22:49.853Z,15.50
2018-09-19T23:25:18.895Z,14.23
2018-09-19T23:27:48.072Z,17.97
2018-09-19T23:30:17.660Z,12.40
2018-09-19T23:32:46.738Z,14.33
2018-09-19T23:35:15.888Z,13.47
2018-09-19T23:37:45.036Z,13.57
2018-09-19T23:40:14.154Z,11.73
2018-09-19T23:42:44.519Z,16.17
2018-09-19T23:45:14.075Z,15.90
2018-09-19T23:47:43.163Z,17.37
2018-09-19T23:50:13.655Z,12.43
2018-09-19T23:52:42.756Z,16.90
2018-09-19T23:55:11.833Z,12.60
2018-09-19T23:57:41.410Z,16.13
